Terminal Aerodrome Forecast
Issued by NWS

Home | Current Version | Previous Version | Text Only | Print | Product List | Glossary On
Versions: 1 2 3 4 5 6 7 8 9 10 11 12 13 14 15 16 17 18 19 20 21
000
FTUS43 KDLH 291300 AAB
TAFHIB
TAF AMD
KHIB 291355Z 2914/3012 32007KT P6SM VCSH SCT007 OVC015
      TEMPO 2914/2918 34014G22KT 5SM -RA OVC007
     FM292000 34012G20KT P6SM SCT012 BKN035
     FM300200 35010KT P6SM SKC=

USA.gov is the U.S. government's official web portal to all federal, state and local government web resources and services.